createdAt,value
2019-05-09T00:00:04.100Z,7.37
2019-05-09T00:02:39.384Z,5.13
2019-05-09T00:05:10.688Z,5.80
2019-05-09T00:07:41.290Z,7.23
2019-05-09T00:10:14.195Z,6.60
2019-05-09T00:12:44.917Z,7.13
2019-05-09T00:15:16.035Z,6.90
2019-05-09T00:17:46.507Z,8.10
2019-05-09T00:20:36.795Z,9.83
2019-05-09T00:23:07.939Z,8.73
2019-05-09T00:25:38.755Z,8.63
2019-05-09T00:28:09.330Z,8.50
2019-05-09T00:30:57.849Z,8.23
2019-05-09T00:33:30.158Z,8.83
2019-05-09T00:36:00.660Z,8.67
2019-05-09T00:38:55.759Z,6.53
2019-05-09T00:41:26.512Z,6.87
2019-05-09T00:44:09.464Z,10.60
2019-05-09T00:46:48.050Z,6.90
2019-05-09T00:49:23.577Z,7.23
2019-05-09T00:51:54.406Z,7.83
2019-05-09T00:54:25.176Z,7.27
2019-05-09T00:56:55.956Z,7.93
2019-05-09T00:59:26.608Z,8.73
2019-05-09T01:01:57.305Z,8.80
2019-05-09T01:04:27.770Z,8.13
2019-05-09T01:06:59.965Z,8.57
2019-05-09T01:09:30.666Z,8.57
2019-05-09T01:12:03.818Z,8.30
2019-05-09T01:14:34.072Z,9.30
2019-05-09T01:17:04.620Z,8.17
2019-05-09T01:19:35.138Z,6.53
2019-05-09T01:22:05.932Z,7.60
2019-05-09T01:24:36.813Z,5.97
2019-05-09T01:27:07.577Z,6.27
2019-05-09T01:29:38.455Z,5.83
2019-05-09T01:32:17.402Z,5.73
2019-05-09T01:34:48.267Z,8.57
2019-05-09T01:37:19.273Z,8.43
2019-05-09T01:39:49.779Z,4.90
2019-05-09T01:42:20.561Z,6.30
2019-05-09T01:44:53.217Z,5.20
2019-05-09T01:47:24.103Z,7.10
2019-05-09T01:49:55.417Z,5.33
2019-05-09T01:52:26.067Z,6.53
2019-05-09T01:54:57.358Z,8.33
2019-05-09T01:57:28.032Z,7.77
2019-05-09T01:59:58.755Z,8.90
2019-05-09T02:02:29.622Z,6.87
2019-05-09T02:05:03.980Z,6.87
2019-05-09T02:07:33.972Z,7.63
2019-05-09T02:10:05.359Z,6.03
2019-05-09T02:12:36.156Z,6.10
2019-05-09T02:15:15.288Z,5.63
2019-05-09T02:18:07.234Z,6.07
2019-05-09T02:20:38.132Z,7.23
2019-05-09T02:23:08.736Z,6.10
2019-05-09T02:25:39.271Z,6.23
2019-05-09T02:28:10.036Z,7.97
2019-05-09T02:30:40.533Z,8.80
2019-05-09T02:33:14.432Z,7.60
2019-05-09T02:35:52.881Z,7.83
2019-05-09T02:38:15.731Z,8.77
2019-05-09T02:40:48.662Z,9.27
2019-05-09T02:43:18.880Z,9.47
2019-05-09T02:45:59.498Z,9.97
2019-05-09T02:48:30.434Z,9.20
2019-05-09T02:51:01.202Z,9.00
2019-05-09T02:53:31.999Z,9.33
2019-05-09T02:56:03.056Z,12.77
2019-05-09T02:58:40.097Z,8.93
2019-05-09T03:01:32.635Z,11.00
2019-05-09T03:04:03.004Z,10.87
2019-05-09T03:06:33.504Z,11.37
2019-05-09T03:09:04.692Z,11.00
2019-05-09T03:11:38.534Z,9.27
2019-05-09T03:14:09.130Z,10.00
2019-05-09T03:16:40.188Z,9.13
2019-05-09T03:19:10.872Z,11.53
2019-05-09T03:21:49.905Z,9.17
2019-05-09T03:24:20.238Z,8.00
2019-05-09T03:26:59.251Z,7.70
2019-05-09T03:29:48.925Z,8.47
2019-05-09T03:32:19.767Z,9.50
2019-05-09T03:34:50.315Z,8.47
2019-05-09T03:37:20.580Z,7.93
2019-05-09T03:39:50.860Z,9.17
2019-05-09T03:42:25.973Z,8.17
2019-05-09T03:44:53.196Z,9.97
2019-05-09T03:47:48.106Z,9.17
2019-05-09T03:50:18.655Z,9.37
2019-05-09T03:52:49.021Z,9.77
2019-05-09T03:55:28.046Z,7.73
2019-05-09T03:58:11.691Z,8.80
2019-05-09T04:00:42.259Z,8.40
2019-05-09T04:03:12.743Z,8.70
2019-05-09T04:05:55.592Z,8.63
2019-05-09T04:08:18.741Z,10.40
2019-05-09T04:10:53.673Z,7.93
2019-05-09T04:13:32.239Z,9.67
2019-05-09T04:16:03.195Z,7.70
2019-05-09T04:18:34.059Z,7.80
2019-05-09T04:21:04.822Z,8.57
2019-05-09T04:23:38.206Z,8.10
2019-05-09T04:26:25.165Z,8.77
2019-05-09T04:28:57.659Z,8.03
2019-05-09T04:31:28.217Z,9.10
2019-05-09T04:33:59.408Z,7.33
2019-05-09T04:36:42.202Z,5.63
2019-05-09T04:39:18.974Z,6.80
2019-05-09T04:41:48.761Z,5.73
2019-05-09T04:44:28.561Z,5.73
2019-05-09T04:47:03.408Z,6.90
2019-05-09T04:49:39.519Z,5.07
2019-05-09T04:52:04.838Z,7.13
2019-05-09T04:54:38.254Z,5.23
2019-05-09T04:57:08.674Z,7.77
2019-05-09T04:59:39.567Z,7.03
2019-05-09T05:02:38.313Z,4.73
2019-05-09T05:05:12.892Z,4.87
2019-05-09T05:07:44.087Z,5.27
2019-05-09T05:10:15.242Z,4.30
2019-05-09T05:12:48.333Z,5.53
2019-05-09T05:15:20.482Z,4.03
2019-05-09T05:17:51.830Z,4.90
2019-05-09T05:20:27.638Z,4.00
2019-05-09T05:23:08.212Z,4.17
2019-05-09T05:25:39.713Z,3.57
2019-05-09T05:28:10.740Z,4.13
2019-05-09T05:30:41.318Z,3.77
2019-05-09T05:33:30.018Z,3.43
2019-05-09T05:36:02.962Z,6.80
2019-05-09T05:38:33.569Z,4.03
2019-05-09T05:41:04.554Z,3.77
2019-05-09T05:43:41.628Z,3.80
2019-05-09T05:46:28.596Z,4.80
2019-05-09T05:48:59.129Z,4.70
2019-05-09T05:51:32.562Z,4.53
2019-05-09T05:54:03.398Z,5.80
2019-05-09T05:56:34.271Z,6.67
2019-05-09T05:59:05.086Z,6.87
2019-05-09T06:01:38.061Z,3.43
2019-05-09T06:04:08.358Z,3.17
2019-05-09T06:06:39.332Z,4.80
2019-05-09T06:09:10.219Z,4.37
2019-05-09T06:11:40.876Z,3.30
2019-05-09T06:14:12.054Z,3.10
2019-05-09T06:16:43.397Z,3.43
2019-05-09T06:19:14.319Z,4.40
2019-05-09T06:21:45.132Z,3.03
2019-05-09T06:24:17.713Z,2.83
2019-05-09T06:26:48.485Z,5.63
2019-05-09T06:29:18.911Z,2.47
2019-05-09T06:31:49.735Z,3.33
2019-05-09T06:34:20.656Z,3.37
2019-05-09T06:36:51.805Z,3.67
2019-05-09T06:39:23.554Z,2.73
2019-05-09T06:41:54.663Z,2.17
2019-05-09T06:44:32.520Z,3.60
2019-05-09T06:47:13.764Z,2.83
2019-05-09T06:49:49.848Z,3.80
2019-05-09T06:52:19.755Z,2.10
2019-05-09T06:54:54.408Z,3.90
2019-05-09T06:57:27.878Z,4.07
2019-05-09T06:59:58.065Z,2.33
2019-05-09T07:02:38.891Z,4.77
2019-05-09T07:05:18.832Z,4.90
2019-05-09T07:08:20.154Z,5.03
2019-05-09T07:10:50.830Z,1.97
2019-05-09T07:13:21.945Z,3.90
2019-05-09T07:15:53.077Z,5.23
2019-05-09T07:18:23.697Z,5.20
2019-05-09T07:20:57.522Z,3.57
2019-05-09T07:23:28.239Z,1.87
2019-05-09T07:26:17.675Z,4.53
2019-05-09T07:28:49.796Z,2.50
2019-05-09T07:31:33.855Z,2.10
2019-05-09T07:34:08.684Z,4.47
2019-05-09T07:36:39.719Z,3.77
2019-05-09T07:39:10.783Z,3.23
2019-05-09T07:41:41.549Z,2.60
2019-05-09T07:44:14.799Z,4.37
2019-05-09T07:46:58.132Z,4.23
2019-05-09T07:49:30.698Z,2.30
2019-05-09T07:52:06.658Z,3.70
2019-05-09T07:54:33.906Z,2.07
2019-05-09T07:57:04.713Z,3.70
2019-05-09T07:59:35.535Z,3.60
2019-05-09T08:02:08.654Z,3.47
2019-05-09T08:04:39.097Z,3.40
2019-05-09T08:07:10.049Z,4.87
2019-05-09T08:09:41.148Z,2.37
2019-05-09T08:12:12.026Z,4.47
2019-05-09T08:14:43.169Z,3.40
2019-05-09T08:17:13.771Z,2.33
2019-05-09T08:19:44.749Z,3.33
2019-05-09T08:22:24.631Z,3.97
2019-05-09T08:24:48.398Z,4.20
2019-05-09T08:27:19.660Z,3.37
2019-05-09T08:29:50.576Z,5.73
2019-05-09T08:32:21.271Z,3.87
2019-05-09T08:34:52.136Z,3.70
2019-05-09T08:37:22.944Z,3.83
2019-05-09T08:39:53.695Z,1.77
2019-05-09T08:42:24.777Z,4.03
2019-05-09T08:44:57.801Z,5.43
2019-05-09T08:47:28.205Z,2.97
2019-05-09T08:50:08.951Z,3.47
2019-05-09T08:52:39.855Z,3.10
2019-05-09T08:55:10.969Z,3.73
2019-05-09T08:57:41.755Z,3.07
2019-05-09T09:00:13.861Z,3.77
2019-05-09T09:02:44.769Z,2.60
2019-05-09T09:05:18.442Z,2.53
2019-05-09T09:07:49.093Z,2.37
2019-05-09T09:10:20.455Z,2.50
2019-05-09T09:12:51.343Z,3.27
2019-05-09T09:15:46.707Z,2.23
2019-05-09T09:17:57.958Z,3.17
2019-05-09T09:20:29.028Z,2.00
2019-05-09T09:23:00.110Z,4.77
2019-05-09T09:25:30.765Z,3.80
2019-05-09T09:28:01.446Z,2.87
2019-05-09T09:30:32.074Z,2.40
2019-05-09T09:33:02.834Z,3.27
2019-05-09T09:35:33.824Z,3.57
2019-05-09T09:38:04.743Z,3.07
2019-05-09T09:40:35.366Z,2.10
2019-05-09T09:43:08.690Z,2.80
2019-05-09T09:45:38.358Z,3.47
2019-05-09T09:48:09.395Z,1.87
2019-05-09T09:50:40.680Z,4.20
2019-05-09T09:53:12.425Z,4.00
2019-05-09T09:55:43.110Z,1.97
2019-05-09T09:58:13.790Z,4.27
2019-05-09T10:01:03.952Z,2.43
2019-05-09T10:03:36.073Z,5.13
2019-05-09T10:06:06.738Z,4.50
2019-05-09T10:08:39.575Z,1.30
2019-05-09T10:11:09.839Z,3.00
2019-05-09T10:13:40.901Z,3.67
2019-05-09T10:16:32.955Z,3.43
2019-05-09T10:19:14.779Z,2.17
2019-05-09T10:21:48.897Z,4.43
2019-05-09T10:24:19.625Z,2.03
2019-05-09T10:27:10.118Z,2.50
2019-05-09T10:29:40.891Z,2.07
2019-05-09T10:32:18.178Z,2.47
2019-05-09T10:34:49.560Z,2.47
2019-05-09T10:37:20.289Z,2.90
2019-05-09T10:39:50.913Z,3.63
2019-05-09T10:42:31.282Z,2.43
2019-05-09T10:45:23.908Z,6.10
2019-05-09T10:47:54.642Z,4.20
2019-05-09T10:50:25.422Z,3.40
2019-05-09T10:52:58.193Z,3.37
2019-05-09T10:55:28.439Z,2.67
2019-05-09T10:58:02.301Z,3.30
2019-05-09T11:00:32.108Z,2.20
2019-05-09T11:03:02.968Z,3.30
2019-05-09T11:05:33.645Z,1.90
2019-05-09T11:08:04.298Z,5.47
2019-05-09T11:10:34.976Z,2.73
2019-05-09T11:13:07.569Z,2.47
2019-05-09T11:15:38.451Z,4.67
2019-05-09T11:18:09.329Z,2.13
2019-05-09T11:20:40.459Z,4.73
2019-05-09T11:23:11.549Z,4.07
2019-05-09T11:25:42.288Z,4.60
2019-05-09T11:28:15.117Z,3.67
2019-05-09T11:30:47.702Z,2.83
2019-05-09T11:33:18.463Z,3.43
2019-05-09T11:35:51.949Z,2.50
2019-05-09T11:38:33.212Z,6.17
2019-05-09T11:40:53.774Z,2.57
2019-05-09T11:43:24.715Z,2.20
2019-05-09T11:45:55.399Z,3.80
2019-05-09T11:48:28.233Z,3.00
2019-05-09T11:50:58.879Z,4.27
2019-05-09T11:53:30.064Z,3.33
2019-05-09T11:56:00.806Z,3.77
2019-05-09T11:58:31.535Z,3.63
2019-05-09T12:01:03.248Z,5.37
2019-05-09T12:03:34.640Z,1.93
2019-05-09T12:06:07.817Z,3.23
2019-05-09T12:08:38.746Z,2.37
2019-05-09T12:11:09.909Z,2.00
2019-05-09T12:13:40.898Z,4.57
2019-05-09T12:16:12.284Z,5.07
2019-05-09T12:18:43.309Z,2.20
2019-05-09T12:21:18.667Z,4.80
2019-05-09T12:23:49.129Z,3.93
2019-05-09T12:26:20.905Z,2.50
2019-05-09T12:28:51.915Z,3.17
2019-05-09T12:31:23.520Z,2.43
2019-05-09T12:33:54.765Z,1.17
2019-05-09T12:36:30.525Z,1.93
2019-05-09T12:39:01.632Z,3.03
2019-05-09T12:41:32.482Z,3.10
2019-05-09T12:44:03.679Z,6.40
2019-05-09T12:46:34.747Z,6.53
2019-05-09T12:49:05.529Z,4.73
2019-05-09T12:51:37.655Z,5.43
2019-05-09T12:54:08.780Z,3.00
2019-05-09T12:56:39.509Z,2.90
2019-05-09T12:59:10.329Z,3.17
2019-05-09T13:01:41.622Z,2.90
2019-05-09T13:04:12.384Z,2.93
2019-05-09T13:06:43.065Z,2.93
2019-05-09T13:09:13.524Z,8.10
2019-05-09T13:11:44.212Z,4.00
2019-05-09T13:14:14.997Z,3.23
2019-05-09T13:17:00.517Z,5.80
2019-05-09T13:19:38.419Z,3.07
2019-05-09T13:22:09.120Z,2.73
2019-05-09T13:24:39.742Z,2.23
2019-05-09T13:27:10.442Z,3.17
2019-05-09T13:29:41.006Z,7.33
2019-05-09T13:32:11.497Z,3.40
2019-05-09T13:34:42.160Z,5.13
2019-05-09T13:37:13.336Z,5.30
2019-05-09T13:39:44.036Z,3.17
2019-05-09T13:42:14.587Z,4.63
2019-05-09T13:44:47.435Z,3.70
2019-05-09T13:47:18.030Z,3.53
2019-05-09T13:49:48.577Z,4.20
2019-05-09T13:52:19.599Z,5.80
2019-05-09T13:54:50.290Z,1.87
2019-05-09T13:57:21.013Z,4.70
2019-05-09T13:59:51.603Z,3.27
2019-05-09T14:02:22.163Z,4.67
2019-05-09T14:04:54.649Z,5.17
2019-05-09T14:07:27.859Z,5.33
2019-05-09T14:09:58.518Z,4.67
2019-05-09T14:12:29.380Z,3.90
2019-05-09T14:15:00.125Z,4.93
2019-05-09T14:17:44.751Z,5.60
2019-05-09T14:20:03.393Z,2.60
2019-05-09T14:22:34.209Z,3.73
2019-05-09T14:25:07.277Z,7.90
2019-05-09T14:27:37.733Z,2.43
2019-05-09T14:30:08.373Z,3.43
2019-05-09T14:32:40.172Z,3.83
2019-05-09T14:35:11.066Z,5.33
2019-05-09T14:37:44.328Z,3.87
2019-05-09T14:40:17.431Z,2.40
2019-05-09T14:42:49.483Z,1.37
2019-05-09T14:45:23.017Z,5.37
2019-05-09T14:47:53.804Z,2.07
2019-05-09T14:50:25.044Z,2.87
2019-05-09T14:52:58.265Z,3.43
2019-05-09T14:55:28.671Z,3.77
2019-05-09T14:57:59.358Z,3.10
2019-05-09T15:00:30.186Z,4.30
2019-05-09T15:03:00.832Z,2.97
2019-05-09T15:05:31.507Z,2.47
2019-05-09T15:08:02.374Z,2.73
2019-05-09T15:10:33.559Z,2.87
2019-05-09T15:13:04.231Z,1.70
2019-05-09T15:15:35.231Z,3.53
2019-05-09T15:18:08.113Z,1.17
2019-05-09T15:20:38.285Z,1.87
2019-05-09T15:23:09.127Z,2.23
2019-05-09T15:25:39.651Z,1.70
2019-05-09T15:28:10.243Z,3.70
2019-05-09T15:30:40.923Z,1.60
2019-05-09T15:33:11.618Z,1.30
2019-05-09T15:35:44.286Z,1.17
2019-05-09T15:38:15.005Z,1.37
2019-05-09T15:40:48.085Z,2.53
2019-05-09T15:43:21.198Z,2.57
2019-05-09T15:46:04.365Z,2.20
2019-05-09T15:48:35.062Z,1.87
2019-05-09T15:51:07.536Z,2.53
2019-05-09T15:53:38.231Z,2.93
2019-05-09T15:56:08.878Z,1.70
2019-05-09T15:58:39.914Z,2.43
2019-05-09T16:01:10.568Z,1.47
2019-05-09T16:03:41.090Z,1.50
2019-05-09T16:06:12.122Z,2.60
2019-05-09T16:08:43.780Z,1.07
2019-05-09T16:11:17.815Z,1.33
2019-05-09T16:13:52.599Z,0.87
2019-05-09T16:16:24.469Z,1.47
2019-05-09T16:18:58.284Z,3.57
2019-05-09T16:21:30.923Z,0.93
2019-05-09T16:24:01.907Z,2.40
2019-05-09T16:26:32.669Z,1.00
2019-05-09T16:29:03.777Z,2.87
2019-05-09T16:31:35.014Z,2.03
2019-05-09T16:34:09.434Z,2.20
2019-05-09T16:36:39.499Z,1.03
2019-05-09T16:39:10.639Z,2.60
2019-05-09T16:41:41.957Z,3.33
2019-05-09T16:44:13.085Z,0.90
2019-05-09T16:46:44.025Z,2.00
2019-05-09T16:49:17.534Z,2.23
2019-05-09T16:51:50.165Z,2.00
2019-05-09T16:54:22.681Z,0.90
2019-05-09T16:56:53.651Z,1.73
2019-05-09T16:59:24.727Z,1.83
2019-05-09T17:01:57.713Z,3.77
2019-05-09T17:04:28.032Z,1.67
2019-05-09T17:06:58.625Z,1.53
2019-05-09T17:09:29.409Z,2.00
2019-05-09T17:12:00.030Z,1.20
2019-05-09T17:14:30.862Z,1.30
2019-05-09T17:17:01.432Z,2.97
2019-05-09T17:19:32.026Z,3.33
2019-05-09T17:22:16.134Z,2.03
2019-05-09T17:24:48.506Z,2.63
2019-05-09T17:27:21.596Z,3.77
2019-05-09T17:29:52.248Z,1.67
2019-05-09T17:32:22.987Z,1.67
2019-05-09T17:34:53.545Z,4.40
2019-05-09T17:37:24.101Z,2.47
2019-05-09T17:39:54.780Z,2.00
2019-05-09T17:42:27.611Z,1.77
2019-05-09T17:44:58.288Z,1.00
2019-05-09T17:47:29.025Z,1.90
2019-05-09T17:49:59.833Z,4.13
2019-05-09T17:52:30.655Z,1.37
2019-05-09T17:55:01.463Z,0.80
2019-05-09T17:57:32.309Z,1.00
2019-05-09T18:00:03.064Z,1.83
2019-05-09T18:02:34.457Z,1.23
2019-05-09T18:05:05.038Z,0.60
2019-05-09T18:07:37.717Z,1.03
2019-05-09T18:10:10.128Z,1.50
2019-05-09T18:12:41.007Z,1.23
2019-05-09T18:15:12.365Z,1.60
2019-05-09T18:17:43.119Z,1.07
2019-05-09T18:20:14.167Z,0.67
2019-05-09T18:22:44.669Z,1.87
2019-05-09T18:25:15.634Z,0.67
2019-05-09T18:27:48.704Z,0.70
2019-05-09T18:30:19.951Z,0.80
2019-05-09T18:33:03.062Z,0.93
2019-05-09T18:35:33.947Z,0.63
2019-05-09T18:38:05.380Z,1.37
2019-05-09T18:40:35.999Z,2.33
2019-05-09T18:43:07.700Z,0.80
2019-05-09T18:45:38.331Z,0.50
2019-05-09T18:48:08.952Z,0.83
2019-05-09T18:50:39.437Z,2.03
2019-05-09T18:53:09.783Z,1.00
2019-05-09T18:55:40.528Z,1.00
2019-05-09T18:58:10.823Z,1.77
2019-05-09T19:00:41.172Z,1.63
2019-05-09T19:03:11.793Z,2.77
2019-05-09T19:05:42.089Z,1.33
2019-05-09T19:08:12.412Z,0.90
2019-05-09T19:10:42.705Z,0.50
2019-05-09T19:13:13.229Z,1.30
2019-05-09T19:16:00.994Z,1.33
2019-05-09T19:18:50.270Z,1.20
2019-05-09T19:21:24.366Z,0.60
2019-05-09T19:23:54.672Z,1.13
2019-05-09T19:26:37.088Z,3.33
2019-05-09T19:29:09.087Z,1.53
2019-05-09T19:31:39.835Z,1.90
2019-05-09T19:34:10.168Z,1.37
2019-05-09T19:36:40.527Z,1.70
2019-05-09T19:39:11.441Z,1.63
2019-05-09T19:41:41.846Z,1.13
2019-05-09T19:44:12.157Z,1.00
2019-05-09T19:46:42.503Z,1.13
2019-05-09T19:49:12.920Z,2.73
2019-05-09T19:51:43.382Z,1.30
2019-05-09T19:54:13.886Z,2.00
2019-05-09T19:56:44.523Z,2.00
2019-05-09T19:59:15.084Z,3.73
2019-05-09T20:01:45.581Z,1.00
2019-05-09T20:04:29.033Z,0.70
2019-05-09T20:06:59.441Z,2.20
2019-05-09T20:09:36.563Z,1.80
2019-05-09T20:12:24.395Z,3.17
2019-05-09T20:14:54.885Z,0.97
2019-05-09T20:17:25.506Z,0.70
2019-05-09T20:19:55.933Z,1.00
2019-05-09T20:22:26.316Z,2.33
2019-05-09T20:24:56.681Z,0.90
2019-05-09T20:27:27.162Z,1.03
2019-05-09T20:29:57.579Z,1.00
2019-05-09T20:32:28.013Z,0.70
2019-05-09T20:34:58.669Z,1.07
2019-05-09T20:37:29.276Z,2.00
2019-05-09T20:39:59.909Z,0.70
2019-05-09T20:42:30.467Z,1.53
2019-05-09T20:45:01.316Z,0.90
2019-05-09T20:47:32.059Z,0.83
2019-05-09T20:50:02.696Z,4.00
2019-05-09T20:52:33.399Z,2.07
2019-05-09T20:55:04.184Z,1.37
2019-05-09T20:57:34.796Z,1.53
2019-05-09T21:00:05.774Z,2.67
2019-05-09T21:02:36.478Z,1.17
2019-05-09T21:05:07.246Z,1.77
2019-05-09T21:07:37.913Z,1.10
2019-05-09T21:10:08.792Z,1.07
2019-05-09T21:12:39.436Z,0.80
2019-05-09T21:15:10.549Z,0.87
2019-05-09T21:17:41.196Z,2.73
2019-05-09T21:20:11.801Z,0.87
2019-05-09T21:22:42.497Z,1.60
2019-05-09T21:25:13.065Z,0.90
2019-05-09T21:27:43.715Z,1.23
2019-05-09T21:30:14.790Z,0.77
2019-05-09T21:32:45.431Z,1.17
2019-05-09T21:35:15.877Z,1.50
2019-05-09T21:37:46.264Z,2.57
2019-05-09T21:40:18.287Z,2.97
2019-05-09T21:42:48.666Z,2.33
2019-05-09T21:45:19.037Z,4.27
2019-05-09T21:47:49.428Z,3.47
2019-05-09T21:50:19.913Z,3.30
2019-05-09T21:52:50.300Z,2.33
2019-05-09T21:55:20.709Z,1.33
2019-05-09T21:57:51.062Z,1.90
2019-05-09T22:00:27.715Z,2.10
2019-05-09T22:02:58.065Z,2.43
2019-05-09T22:05:28.516Z,3.30
2019-05-09T22:07:58.971Z,0.80
2019-05-09T22:10:29.413Z,2.40
2019-05-09T22:12:59.799Z,2.60
2019-05-09T22:15:30.254Z,1.57
2019-05-09T22:18:00.790Z,1.33
2019-05-09T22:20:31.333Z,2.80
2019-05-09T22:23:02.093Z,1.20
2019-05-09T22:25:32.542Z,2.13
2019-05-09T22:28:03.420Z,1.50
2019-05-09T22:30:33.830Z,1.13
2019-05-09T22:33:05.602Z,3.20
2019-05-09T22:35:36.066Z,1.40
2019-05-09T22:38:06.426Z,1.40
2019-05-09T22:40:36.812Z,1.20
2019-05-09T22:43:07.172Z,1.27
2019-05-09T22:45:37.865Z,2.50
2019-05-09T22:48:08.344Z,2.10
2019-05-09T22:50:38.876Z,1.30
2019-05-09T22:53:09.265Z,2.43
2019-05-09T22:55:39.632Z,2.50
2019-05-09T22:58:09.917Z,2.10
2019-05-09T23:00:40.411Z,1.20
2019-05-09T23:03:10.735Z,1.40
2019-05-09T23:05:41.317Z,2.33
2019-05-09T23:08:11.648Z,1.40
2019-05-09T23:10:42.124Z,2.33
2019-05-09T23:13:12.490Z,1.33
2019-05-09T23:15:42.881Z,1.43
2019-05-09T23:18:13.293Z,2.43
2019-05-09T23:20:48.545Z,1.40
2019-05-09T23:23:29.539Z,3.00
2019-05-09T23:25:59.895Z,1.60
2019-05-09T23:28:30.331Z,1.70
2019-05-09T23:31:02.877Z,2.03
2019-05-09T23:33:36.878Z,2.50
2019-05-09T23:36:07.206Z,2.20
2019-05-09T23:38:56.467Z,2.57
2019-05-09T23:41:36.037Z,3.10
2019-05-09T23:44:06.407Z,3.30
2019-05-09T23:46:36.813Z,1.50
2019-05-09T23:49:09.485Z,1.50
2019-05-09T23:51:46.136Z,1.70
2019-05-09T23:54:47.181Z,3.00
2019-05-09T23:57:28.556Z,1.50
